createdAt,value
2024-03-02T00:00:11.853Z,7.42
2024-03-02T00:01:11.989Z,7.50
2024-03-02T00:02:11.790Z,7.50
2024-03-02T00:03:11.890Z,7.46
2024-03-02T00:04:11.802Z,7.47
2024-03-02T00:05:11.820Z,7.40
2024-03-02T00:06:11.857Z,7.33
2024-03-02T00:07:11.780Z,7.28
2024-03-02T00:08:11.755Z,7.36
2024-03-02T00:09:11.771Z,7.28
2024-03-02T00:10:11.736Z,7.18
2024-03-02T00:11:11.756Z,7.24
2024-03-02T00:12:11.827Z,7.24
2024-03-02T00:13:11.727Z,7.10
2024-03-02T00:14:11.712Z,7.13
2024-03-02T00:15:11.780Z,7.31
2024-03-02T00:16:11.704Z,7.11
2024-03-02T00:17:11.833Z,7.16
2024-03-02T00:18:11.777Z,7.21
2024-03-02T00:19:11.900Z,7.25
2024-03-02T00:20:11.677Z,7.18
2024-03-02T00:21:11.709Z,7.26
2024-03-02T00:22:11.682Z,7.31
2024-03-02T00:23:11.691Z,7.26
2024-03-02T00:24:11.731Z,7.31
2024-03-02T00:25:11.665Z,7.28
2024-03-02T00:26:11.732Z,7.22
2024-03-02T00:27:11.726Z,7.11
2024-03-02T00:28:11.643Z,7.18
2024-03-02T00:29:11.618Z,7.19
2024-03-02T00:30:11.640Z,7.19
2024-03-02T00:31:11.632Z,7.22
2024-03-02T00:32:11.606Z,7.19
2024-03-02T00:33:11.681Z,7.25
2024-03-02T00:34:11.677Z,7.31
2024-03-02T00:35:18.625Z,7.29
2024-03-02T00:36:11.748Z,7.22
2024-03-02T00:37:18.670Z,7.26
2024-03-02T00:38:11.586Z,7.22
2024-03-02T00:39:11.569Z,7.24
2024-03-02T00:40:11.604Z,7.21
2024-03-02T00:41:11.578Z,7.19
2024-03-02T00:42:11.525Z,7.07
2024-03-02T00:43:11.560Z,7.18
2024-03-02T00:44:11.551Z,7.16
2024-03-02T00:45:11.888Z,7.21
2024-03-02T00:46:11.546Z,7.03
2024-03-02T00:47:11.519Z,6.91
2024-03-02T00:48:11.497Z,6.81
2024-03-02T00:49:11.518Z,6.82
2024-03-02T00:50:20.137Z,6.89
2024-03-02T00:51:12.500Z,6.85
2024-03-02T00:52:11.465Z,6.85
2024-03-02T00:53:11.488Z,6.85
2024-03-02T00:54:11.493Z,6.83
2024-03-02T00:55:11.455Z,6.79
2024-03-02T00:56:11.469Z,6.89
2024-03-02T00:57:11.431Z,6.83
2024-03-02T00:58:11.427Z,6.81
2024-03-02T00:59:11.414Z,6.88
2024-03-02T01:00:11.430Z,6.79
2024-03-02T01:01:11.506Z,6.71
2024-03-02T01:02:11.426Z,6.70
2024-03-02T01:03:11.392Z,6.57
2024-03-02T01:04:11.386Z,6.68
2024-03-02T01:05:11.388Z,6.74
2024-03-02T01:06:11.413Z,6.56
2024-03-02T01:07:11.388Z,6.71
2024-03-02T01:08:11.394Z,6.65
2024-03-02T01:09:11.395Z,6.64
2024-03-02T01:10:11.363Z,6.67
2024-03-02T01:11:11.404Z,6.68
2024-03-02T01:12:11.428Z,6.63
2024-03-02T01:13:11.327Z,6.78
2024-03-02T01:14:11.320Z,6.64
2024-03-02T01:15:11.312Z,6.67
2024-03-02T01:16:11.350Z,6.64
2024-03-02T01:17:11.374Z,6.57
2024-03-02T01:18:11.286Z,6.65
2024-03-02T01:19:12.300Z,6.56
2024-03-02T01:20:11.274Z,6.70
2024-03-02T01:21:11.300Z,6.65
2024-03-02T01:22:11.324Z,6.73
2024-03-02T01:23:11.254Z,6.73
2024-03-02T01:24:11.244Z,6.73
2024-03-02T01:25:11.264Z,6.82
2024-03-02T01:26:11.295Z,6.88
2024-03-02T01:27:11.269Z,6.78
2024-03-02T01:28:11.290Z,6.75
2024-03-02T01:29:11.222Z,6.85
2024-03-02T01:30:11.217Z,6.73
2024-03-02T01:31:11.203Z,6.81
2024-03-02T01:32:11.372Z,6.73
2024-03-02T01:33:11.210Z,6.74
2024-03-02T01:34:12.710Z,6.73
2024-03-02T01:35:11.174Z,6.78
2024-03-02T01:36:11.246Z,6.53
2024-03-02T01:37:11.215Z,6.50
2024-03-02T01:38:11.162Z,6.47
2024-03-02T01:39:11.154Z,6.52
2024-03-02T01:40:11.145Z,6.47
2024-03-02T01:41:11.235Z,6.42
2024-03-02T01:42:11.153Z,6.43
2024-03-02T01:43:11.250Z,6.38
2024-03-02T01:44:11.114Z,6.38
2024-03-02T01:45:11.186Z,6.43
2024-03-02T01:46:11.162Z,6.35
2024-03-02T01:47:11.098Z,6.38
2024-03-02T01:48:11.499Z,6.53
2024-03-02T01:49:11.108Z,6.49
2024-03-02T01:50:11.081Z,6.61
2024-03-02T01:51:11.090Z,6.61
2024-03-02T01:52:11.073Z,6.71
2024-03-02T01:53:11.503Z,6.57
2024-03-02T01:54:11.059Z,6.65
2024-03-02T01:55:11.051Z,6.64
2024-03-02T01:56:11.047Z,6.63
2024-03-02T01:57:11.062Z,6.56
2024-03-02T01:58:11.118Z,6.64
2024-03-02T01:59:11.031Z,6.57
2024-03-02T02:00:11.046Z,6.46
2024-03-02T02:01:11.091Z,6.57
2024-03-02T02:02:11.056Z,6.43
2024-03-02T02:03:11.047Z,6.55
2024-03-02T02:04:10.990Z,6.45
2024-03-02T02:05:10.997Z,6.42
2024-03-02T02:06:10.990Z,6.52
2024-03-02T02:07:11.102Z,6.35
2024-03-02T02:08:10.959Z,6.21
2024-03-02T02:09:10.966Z,6.31
2024-03-02T02:10:10.947Z,6.18
2024-03-02T02:11:10.954Z,6.31
2024-03-02T02:12:11.004Z,6.19
2024-03-02T02:13:10.963Z,6.21
2024-03-02T02:14:10.922Z,6.12
2024-03-02T02:15:10.913Z,6.05
2024-03-02T02:16:10.909Z,6.02
2024-03-02T02:17:10.916Z,5.94
2024-03-02T02:18:10.988Z,5.73
2024-03-02T02:19:11.096Z,5.67
2024-03-02T02:20:10.932Z,5.72
2024-03-02T02:21:10.880Z,5.67
2024-03-02T02:22:10.886Z,5.79
2024-03-02T02:23:11.086Z,5.66
2024-03-02T02:24:10.871Z,5.62
2024-03-02T02:25:10.848Z,5.66
2024-03-02T02:26:10.847Z,5.70
2024-03-02T02:27:10.862Z,5.72
2024-03-02T02:28:10.839Z,5.61
2024-03-02T02:29:10.858Z,5.62
2024-03-02T02:30:10.817Z,5.61
2024-03-02T02:31:10.895Z,5.62
2024-03-02T02:32:10.847Z,5.70
2024-03-02T02:33:10.841Z,5.59
2024-03-02T02:34:10.912Z,5.51
2024-03-02T02:35:10.772Z,5.55
2024-03-02T02:36:10.778Z,5.70
2024-03-02T02:37:10.787Z,5.76
2024-03-02T02:38:10.760Z,5.80
2024-03-02T02:39:10.757Z,5.95
2024-03-02T02:40:10.763Z,6.03
2024-03-02T02:41:10.761Z,6.15
2024-03-02T02:42:10.784Z,6.35
2024-03-02T02:43:10.745Z,6.49
2024-03-02T02:44:10.745Z,6.60
2024-03-02T02:45:10.744Z,6.61
2024-03-02T02:46:10.807Z,6.67
2024-03-02T02:47:10.745Z,6.67
2024-03-02T02:48:10.746Z,6.65
2024-03-02T02:49:10.691Z,6.75
2024-03-02T02:50:10.736Z,6.81
2024-03-02T02:51:10.689Z,6.83
2024-03-02T02:52:10.707Z,6.82
2024-03-02T02:53:10.668Z,6.86
2024-03-02T02:54:10.670Z,6.78
2024-03-02T02:55:10.649Z,6.82
2024-03-02T02:56:10.642Z,6.88
2024-03-02T02:57:10.663Z,6.83
2024-03-02T02:58:10.625Z,6.89
2024-03-02T02:59:10.632Z,6.96
2024-03-02T03:00:10.655Z,6.88
2024-03-02T03:01:10.716Z,6.82
2024-03-02T03:02:10.613Z,6.97
2024-03-02T03:03:10.613Z,6.96
2024-03-02T03:04:10.585Z,6.91
2024-03-02T03:05:10.642Z,6.85
2024-03-02T03:06:10.583Z,6.92
2024-03-02T03:07:10.586Z,6.82
2024-03-02T03:08:10.581Z,7.00
2024-03-02T03:09:10.564Z,6.99
2024-03-02T03:10:10.669Z,6.97
2024-03-02T03:11:10.604Z,6.97
2024-03-02T03:12:10.532Z,6.81
2024-03-02T03:13:10.896Z,6.85
2024-03-02T03:14:10.515Z,6.99
2024-03-02T03:15:10.884Z,6.91
2024-03-02T03:16:10.530Z,6.97
2024-03-02T03:17:11.331Z,6.89
2024-03-02T03:18:10.592Z,6.97
2024-03-02T03:19:10.488Z,6.96
2024-03-02T03:20:10.510Z,7.01
2024-03-02T03:21:10.476Z,7.08
2024-03-02T03:22:10.468Z,6.92
2024-03-02T03:23:10.680Z,6.93
2024-03-02T03:24:10.473Z,6.93
2024-03-02T03:25:10.505Z,7.08
2024-03-02T03:26:10.460Z,7.06
2024-03-02T03:27:10.475Z,7.01
2024-03-02T03:28:10.427Z,7.03
2024-03-02T03:29:10.425Z,7.03
2024-03-02T03:30:10.503Z,7.04
2024-03-02T03:31:10.426Z,6.96
2024-03-02T03:32:10.442Z,7.03
2024-03-02T03:33:10.410Z,7.03
2024-03-02T03:34:10.381Z,6.96
2024-03-02T03:35:10.448Z,6.96
2024-03-02T03:36:10.376Z,6.96
2024-03-02T03:37:10.535Z,6.96
2024-03-02T03:38:10.351Z,6.86
2024-03-02T03:39:10.352Z,6.97
2024-03-02T03:40:10.350Z,7.00
2024-03-02T03:41:10.334Z,6.86
2024-03-02T03:42:10.355Z,6.88
2024-03-02T03:43:10.332Z,6.89
2024-03-02T03:44:10.321Z,6.79
2024-03-02T03:45:10.341Z,6.81
2024-03-02T03:46:10.302Z,6.85
2024-03-02T03:47:10.328Z,6.74
2024-03-02T03:48:10.326Z,6.97
2024-03-02T03:49:10.321Z,6.89
2024-03-02T03:50:10.283Z,6.92
2024-03-02T03:51:10.287Z,6.89
2024-03-02T03:52:11.152Z,6.99
2024-03-02T03:53:10.272Z,6.89
2024-03-02T03:54:10.278Z,6.89
2024-03-02T03:55:10.284Z,6.83
2024-03-02T03:56:10.242Z,6.82
2024-03-02T03:57:10.253Z,6.91
2024-03-02T03:58:10.227Z,7.00
2024-03-02T03:59:10.220Z,7.03
2024-03-02T04:00:10.240Z,7.03
2024-03-02T04:01:10.322Z,6.99
2024-03-02T04:02:10.255Z,6.92
2024-03-02T04:03:10.364Z,7.00
2024-03-02T04:04:10.211Z,6.99
2024-03-02T04:05:10.217Z,6.86
2024-03-02T04:06:10.200Z,7.03
2024-03-02T04:07:10.197Z,6.97
2024-03-02T04:08:10.181Z,6.86
2024-03-02T04:09:10.982Z,6.88
2024-03-02T04:10:10.179Z,6.91
2024-03-02T04:11:10.170Z,6.97
2024-03-02T04:12:10.153Z,6.96
2024-03-02T04:13:10.130Z,6.88
2024-03-02T04:14:10.249Z,6.93
2024-03-02T04:15:10.150Z,6.92
2024-03-02T04:16:10.102Z,7.00
2024-03-02T04:17:10.123Z,6.92
2024-03-02T04:18:10.223Z,6.79
2024-03-02T04:19:10.103Z,6.89
2024-03-02T04:20:10.095Z,6.86
2024-03-02T04:21:10.123Z,6.93
2024-03-02T04:22:15.783Z,6.75
2024-03-02T04:23:11.205Z,6.86
2024-03-02T04:24:10.135Z,6.92
2024-03-02T04:25:10.147Z,6.91
2024-03-02T04:26:10.050Z,6.91
2024-03-02T04:27:10.163Z,6.83
2024-03-02T04:28:10.078Z,6.86
2024-03-02T04:29:10.153Z,6.85
2024-03-02T04:30:10.135Z,6.96
2024-03-02T04:31:10.174Z,6.79
2024-03-02T04:32:10.160Z,6.85
2024-03-02T04:33:10.101Z,6.73
2024-03-02T04:34:10.090Z,6.79
2024-03-02T04:35:10.051Z,6.70
2024-03-02T04:36:09.983Z,6.75
2024-03-02T04:37:10.065Z,6.79
2024-03-02T04:38:10.038Z,6.79
2024-03-02T04:39:09.957Z,6.79
2024-03-02T04:40:09.960Z,6.57
2024-03-02T04:41:09.957Z,6.68
2024-03-02T04:42:09.980Z,6.70
2024-03-02T04:43:09.935Z,6.63
2024-03-02T04:44:09.930Z,6.65
2024-03-02T04:45:09.924Z,6.73
2024-03-02T04:46:09.955Z,6.71
2024-03-02T04:47:09.999Z,6.64
2024-03-02T04:48:09.901Z,6.61
2024-03-02T04:49:10.031Z,6.64
2024-03-02T04:50:09.900Z,6.63
2024-03-02T04:51:09.886Z,6.64
2024-03-02T04:52:09.903Z,6.73
2024-03-02T04:53:09.997Z,6.56
2024-03-02T04:54:09.861Z,6.67
2024-03-02T04:55:09.874Z,6.65
2024-03-02T04:56:09.857Z,6.57
2024-03-02T04:57:09.864Z,6.65
2024-03-02T04:58:09.844Z,6.57
2024-03-02T04:59:09.857Z,6.53
2024-03-02T05:00:09.830Z,6.63
2024-03-02T05:01:09.859Z,6.47
2024-03-02T05:02:09.843Z,6.61
2024-03-02T05:03:09.795Z,6.38
2024-03-02T05:04:09.790Z,6.37
2024-03-02T05:05:09.796Z,6.34
2024-03-02T05:06:09.803Z,6.25
2024-03-02T05:07:09.847Z,6.21
2024-03-02T05:08:09.757Z,6.13
2024-03-02T05:09:09.794Z,6.12
2024-03-02T05:10:09.745Z,6.21
2024-03-02T05:11:09.783Z,6.21
2024-03-02T05:12:09.768Z,6.16
2024-03-02T05:13:09.756Z,6.27
2024-03-02T05:14:09.747Z,6.31
2024-03-02T05:15:09.720Z,6.32
2024-03-02T05:16:09.824Z,6.13
2024-03-02T05:17:09.872Z,6.27
2024-03-02T05:18:09.729Z,6.32
2024-03-02T05:19:09.705Z,6.19
2024-03-02T05:20:09.682Z,6.31
2024-03-02T05:21:09.694Z,6.38
2024-03-02T05:22:09.705Z,6.40
2024-03-02T05:23:09.660Z,6.38
2024-03-02T05:24:09.715Z,6.40
2024-03-02T05:25:09.723Z,6.42
2024-03-02T05:26:09.721Z,6.37
2024-03-02T05:27:09.699Z,6.35
2024-03-02T05:28:09.694Z,6.21
2024-03-02T05:29:09.639Z,6.15
2024-03-02T05:30:09.618Z,6.19
2024-03-02T05:31:09.613Z,6.08
2024-03-02T05:32:09.632Z,5.95
2024-03-02T05:33:09.636Z,6.03
2024-03-02T05:34:09.682Z,5.93
2024-03-02T05:35:09.773Z,5.85
2024-03-02T05:36:09.574Z,5.84
2024-03-02T05:37:09.596Z,5.79
2024-03-02T05:38:09.564Z,5.85
2024-03-02T05:39:09.569Z,5.85
2024-03-02T05:40:09.673Z,5.82
2024-03-02T05:41:09.641Z,5.75
2024-03-02T05:42:09.564Z,5.77
2024-03-02T05:43:09.560Z,5.72
2024-03-02T05:44:09.523Z,5.76
2024-03-02T05:45:09.535Z,5.72
2024-03-02T05:46:09.521Z,5.69
2024-03-02T05:47:09.540Z,5.76
2024-03-02T05:48:09.604Z,5.84
2024-03-02T05:49:09.562Z,5.77
2024-03-02T05:50:09.480Z,5.69
2024-03-02T05:51:09.480Z,5.73
2024-03-02T05:52:09.498Z,5.76
2024-03-02T05:53:09.463Z,5.80
2024-03-02T05:54:09.603Z,5.79
2024-03-02T05:55:09.450Z,5.70
2024-03-02T05:56:09.448Z,5.75
2024-03-02T05:57:09.478Z,5.88
2024-03-02T05:58:09.429Z,5.73
2024-03-02T05:59:09.430Z,5.77
2024-03-02T06:00:09.545Z,5.75
2024-03-02T06:01:09.457Z,5.80
2024-03-02T06:02:09.862Z,5.77
2024-03-02T06:03:09.399Z,5.79
2024-03-02T06:04:09.381Z,5.77
2024-03-02T06:05:09.389Z,5.87
2024-03-02T06:06:09.399Z,5.69
2024-03-02T06:07:09.444Z,5.73
2024-03-02T06:08:09.360Z,5.93
2024-03-02T06:09:09.424Z,5.73
2024-03-02T06:10:11.887Z,5.70
2024-03-02T06:11:09.845Z,5.73
2024-03-02T06:12:09.363Z,5.79
2024-03-02T06:13:09.355Z,5.85
2024-03-02T06:14:09.339Z,5.76
2024-03-02T06:15:09.337Z,5.90
2024-03-02T06:16:09.348Z,5.80
2024-03-02T06:17:09.321Z,5.75
2024-03-02T06:18:09.385Z,5.65
2024-03-02T06:19:09.296Z,5.57
2024-03-02T06:20:09.409Z,5.43
2024-03-02T06:21:09.278Z,5.43
2024-03-02T06:22:09.279Z,5.41
2024-03-02T06:23:09.299Z,5.48
2024-03-02T06:24:09.251Z,5.54
2024-03-02T06:25:09.367Z,5.55
2024-03-02T06:26:09.246Z,5.65
2024-03-02T06:27:09.533Z,5.66
2024-03-02T06:28:09.262Z,5.70
2024-03-02T06:29:09.241Z,5.69
2024-03-02T06:30:09.235Z,5.70
2024-03-02T06:31:09.315Z,5.67
2024-03-02T06:32:09.189Z,5.70
2024-03-02T06:33:09.210Z,5.79
2024-03-02T06:34:09.254Z,5.75
2024-03-02T06:35:09.204Z,5.80
2024-03-02T06:36:09.174Z,5.70
2024-03-02T06:37:09.206Z,5.50
2024-03-02T06:38:09.174Z,5.48
2024-03-02T06:39:09.149Z,5.51
2024-03-02T06:40:09.232Z,5.40
2024-03-02T06:41:09.424Z,5.39
2024-03-02T06:42:09.128Z,5.51
2024-03-02T06:43:09.134Z,5.57
2024-03-02T06:44:09.146Z,5.48
2024-03-02T06:45:09.135Z,5.55
2024-03-02T06:46:09.318Z,5.61
2024-03-02T06:47:09.087Z,5.73
2024-03-02T06:48:09.110Z,5.66
2024-03-02T06:49:09.098Z,5.65
2024-03-02T06:50:09.077Z,5.66
2024-03-02T06:51:09.133Z,5.65
2024-03-02T06:52:09.071Z,5.67
2024-03-02T06:53:09.082Z,5.67
2024-03-02T06:54:09.044Z,5.77
2024-03-02T06:55:09.057Z,5.82
2024-03-02T06:56:09.049Z,5.84
2024-03-02T06:57:09.047Z,5.91
2024-03-02T06:58:09.127Z,5.97
2024-03-02T06:59:09.012Z,5.94
2024-03-02T07:00:08.999Z,6.06
2024-03-02T07:01:09.068Z,6.16
2024-03-02T07:02:09.076Z,6.19
2024-03-02T07:03:09.127Z,6.27
2024-03-02T07:04:08.987Z,6.31
2024-03-02T07:05:08.986Z,6.40
2024-03-02T07:06:09.075Z,6.37
2024-03-02T07:07:09.058Z,6.37
2024-03-02T07:08:08.957Z,6.40
2024-03-02T07:09:08.955Z,6.43
2024-03-02T07:10:08.987Z,6.45
2024-03-02T07:11:08.940Z,6.53
2024-03-02T07:12:08.956Z,6.61
2024-03-02T07:13:08.969Z,6.67
2024-03-02T07:14:09.034Z,6.65
2024-03-02T07:15:08.906Z,6.71
2024-03-02T07:16:08.954Z,6.82
2024-03-02T07:17:08.958Z,6.92
2024-03-02T07:18:08.890Z,6.92
2024-03-02T07:19:08.998Z,6.89
2024-03-02T07:20:09.216Z,7.01
2024-03-02T07:21:08.872Z,7.04
2024-03-02T07:22:09.452Z,7.08
2024-03-02T07:23:08.881Z,7.08
2024-03-02T07:24:08.861Z,7.00
2024-03-02T07:25:08.912Z,7.11
2024-03-02T07:27:08.863Z,7.15
2024-03-02T07:28:08.833Z,7.06
2024-03-02T07:29:08.820Z,7.01
2024-03-02T07:30:08.877Z,6.97
2024-03-02T07:31:08.835Z,7.22
2024-03-02T07:32:08.826Z,7.04
2024-03-02T07:33:08.867Z,7.21
2024-03-02T07:34:08.842Z,7.15
2024-03-02T07:35:08.852Z,7.13
2024-03-02T07:36:08.792Z,7.34
2024-03-02T07:37:08.806Z,7.42
2024-03-02T07:38:08.773Z,7.61
2024-03-02T07:39:08.757Z,7.74
2024-03-02T07:40:08.788Z,7.83
2024-03-02T07:41:09.012Z,8.02
2024-03-02T07:42:08.739Z,8.12
2024-03-02T07:43:08.763Z,8.19
2024-03-02T07:44:08.719Z,8.14
2024-03-02T07:45:08.722Z,8.19
2024-03-02T07:46:08.716Z,8.16
2024-03-02T07:47:08.710Z,8.26
2024-03-02T07:48:08.775Z,8.29
2024-03-02T07:49:08.749Z,8.42
2024-03-02T07:50:08.686Z,8.39
2024-03-02T07:51:08.689Z,8.41
2024-03-02T07:52:08.701Z,8.41
2024-03-02T07:53:08.705Z,8.52
2024-03-02T07:54:08.682Z,8.42
2024-03-02T07:55:08.653Z,8.44
2024-03-02T07:56:08.651Z,8.42
2024-03-02T07:57:08.658Z,8.44
2024-03-02T07:58:08.654Z,8.31
2024-03-02T07:59:08.631Z,8.19
2024-03-02T08:00:08.666Z,8.01
2024-03-02T08:01:08.709Z,8.01
2024-03-02T08:02:09.533Z,7.95
2024-03-02T08:03:08.591Z,7.88
2024-03-02T08:04:08.580Z,8.10
2024-03-02T08:05:08.600Z,8.09
2024-03-02T08:06:08.572Z,7.91
2024-03-02T08:07:08.685Z,8.02
2024-03-02T08:08:08.565Z,8.01
2024-03-02T08:09:08.547Z,8.14
2024-03-02T08:10:08.642Z,8.06
2024-03-02T08:11:08.597Z,8.06
2024-03-02T08:12:08.571Z,8.01
2024-03-02T08:13:08.557Z,7.99
2024-03-02T08:14:08.537Z,8.02
2024-03-02T08:15:08.509Z,7.99
2024-03-02T08:16:08.559Z,7.96
2024-03-02T08:17:08.508Z,8.10
2024-03-02T08:18:08.509Z,8.05
2024-03-02T08:19:08.586Z,8.04
2024-03-02T08:20:08.470Z,8.16
2024-03-02T08:21:08.499Z,8.20
2024-03-02T08:22:08.513Z,8.19
2024-03-02T08:23:08.452Z,8.21
2024-03-02T08:24:08.469Z,8.29
2024-03-02T08:25:08.469Z,8.20
2024-03-02T08:26:08.434Z,8.37
2024-03-02T08:27:08.605Z,8.28
2024-03-02T08:28:08.484Z,8.34
2024-03-02T08:29:08.412Z,8.42
2024-03-02T08:30:08.537Z,8.37
2024-03-02T08:31:08.438Z,8.28
2024-03-02T08:32:08.430Z,8.16
2024-03-02T08:33:08.433Z,8.13
2024-03-02T08:34:08.476Z,8.16
2024-03-02T08:35:08.376Z,7.98
2024-03-02T08:36:08.372Z,8.09
2024-03-02T08:37:08.428Z,7.96
2024-03-02T08:38:08.832Z,7.99
2024-03-02T08:39:08.356Z,8.17
2024-03-02T08:40:08.440Z,8.21
2024-03-02T08:41:08.335Z,8.39
2024-03-02T08:42:08.359Z,8.34
2024-03-02T08:43:08.354Z,8.38
2024-03-02T08:44:08.367Z,8.44
2024-03-02T08:45:08.315Z,8.53
2024-03-02T08:46:08.385Z,8.53
2024-03-02T08:47:08.350Z,8.59
2024-03-02T08:48:08.339Z,8.72
2024-03-02T08:49:08.342Z,8.74
2024-03-02T08:50:08.278Z,8.95
2024-03-02T08:51:08.267Z,8.98
2024-03-02T08:52:08.351Z,9.04
2024-03-02T08:53:08.295Z,9.14
2024-03-02T08:54:08.366Z,9.22
2024-03-02T08:55:08.344Z,9.23
2024-03-02T08:56:08.246Z,9.27
2024-03-02T08:57:08.430Z,9.29
2024-03-02T08:58:08.400Z,9.32
2024-03-02T08:59:08.212Z,9.23
2024-03-02T09:00:08.209Z,9.24
2024-03-02T09:01:08.347Z,9.08
2024-03-02T09:02:08.217Z,8.89
2024-03-02T09:03:08.186Z,8.81
2024-03-02T09:04:08.222Z,8.98
2024-03-02T09:05:08.182Z,8.90
2024-03-02T09:06:08.164Z,8.85
2024-03-02T09:07:08.253Z,8.78
2024-03-02T09:08:08.185Z,8.78
2024-03-02T09:09:08.251Z,8.90
2024-03-02T09:10:08.203Z,8.89
2024-03-02T09:11:08.134Z,8.85
2024-03-02T09:12:08.232Z,8.90
2024-03-02T09:13:08.161Z,9.06
2024-03-02T09:14:08.108Z,8.95
2024-03-02T09:15:08.101Z,9.01
2024-03-02T09:16:08.159Z,9.23
2024-03-02T09:17:08.433Z,9.23
2024-03-02T09:18:08.228Z,9.27
2024-03-02T09:19:08.119Z,9.37
2024-03-02T09:20:08.085Z,9.42
2024-03-02T09:21:08.047Z,9.50
2024-03-02T09:22:08.071Z,9.54
2024-03-02T09:23:08.039Z,9.50
2024-03-02T09:24:08.129Z,9.55
2024-03-02T09:25:08.113Z,9.37
2024-03-02T09:26:08.011Z,9.36
2024-03-02T09:27:08.040Z,9.42
2024-03-02T09:28:08.092Z,9.27
2024-03-02T09:29:07.990Z,9.26
2024-03-02T09:30:08.003Z,9.37
2024-03-02T09:31:08.184Z,9.26
2024-03-02T09:32:08.060Z,9.22
2024-03-02T09:34:08.060Z,9.03
2024-03-02T09:35:07.952Z,8.88
2024-03-02T09:36:07.934Z,8.92
2024-03-02T09:37:08.143Z,8.85
2024-03-02T09:38:07.922Z,8.71
2024-03-02T09:39:07.918Z,8.83
2024-03-02T09:40:07.924Z,8.80
2024-03-02T09:41:07.934Z,8.81
2024-03-02T09:42:07.971Z,8.92
2024-03-02T09:43:07.896Z,8.90
2024-03-02T09:44:07.911Z,8.93
2024-03-02T09:45:07.896Z,8.86
2024-03-02T09:46:07.938Z,8.78
2024-03-02T09:47:07.901Z,8.86
2024-03-02T09:48:08.016Z,8.83
2024-03-02T09:49:07.835Z,9.03
2024-03-02T09:50:07.840Z,9.03
2024-03-02T09:51:07.840Z,9.09
2024-03-02T09:52:08.279Z,9.01
2024-03-02T09:53:07.805Z,9.06
2024-03-02T09:54:13.505Z,8.99
2024-03-02T09:55:08.894Z,9.22
2024-03-02T09:56:07.784Z,9.42
2024-03-02T09:57:07.817Z,9.50
2024-03-02T09:58:07.879Z,9.54
2024-03-02T09:59:07.759Z,9.80
2024-03-02T10:00:07.757Z,9.93
2024-03-02T10:01:07.991Z,9.98
2024-03-02T10:02:07.888Z,10.03
2024-03-02T10:03:07.767Z,10.10
2024-03-02T10:04:07.768Z,10.26
2024-03-02T10:05:07.857Z,10.45
2024-03-02T10:06:07.749Z,10.52
2024-03-02T10:07:07.717Z,10.52
2024-03-02T10:08:07.750Z,10.64
2024-03-02T10:09:07.731Z,11.01
2024-03-02T10:10:07.748Z,11.25
2024-03-02T10:11:07.714Z,11.19
2024-03-02T10:12:07.685Z,11.31
2024-03-02T10:13:07.728Z,11.19
2024-03-02T10:14:07.659Z,11.13
2024-03-02T10:15:07.648Z,11.20
2024-03-02T10:16:07.727Z,11.38
2024-03-02T10:17:07.663Z,11.51
2024-03-02T10:18:07.693Z,11.73
2024-03-02T10:19:07.632Z,11.79
2024-03-02T10:20:07.625Z,11.79
2024-03-02T10:21:08.366Z,11.99
2024-03-02T10:22:07.815Z,12.14
2024-03-02T10:23:07.670Z,12.17
2024-03-02T10:24:07.990Z,12.30
2024-03-02T10:25:22.029Z,12.26
2024-03-02T10:26:08.616Z,12.23
2024-03-02T10:27:07.600Z,12.22
2024-03-02T10:28:07.601Z,12.30
2024-03-02T10:29:07.918Z,12.29
2024-03-02T10:30:07.559Z,12.21
2024-03-02T10:31:08.285Z,12.14
2024-03-02T10:32:07.542Z,12.08
2024-03-02T10:33:07.570Z,12.00
2024-03-02T10:34:07.611Z,12.10
2024-03-02T10:35:07.521Z,12.22
2024-03-02T10:36:07.527Z,12.28
2024-03-02T10:37:07.662Z,12.38
2024-03-02T10:38:07.521Z,12.48
2024-03-02T10:39:07.526Z,12.50
2024-03-02T10:40:07.655Z,12.41
2024-03-02T10:41:07.485Z,12.54
2024-03-02T10:42:07.596Z,12.58
2024-03-02T10:43:07.560Z,12.71
2024-03-02T10:44:07.464Z,12.81
2024-03-02T10:45:07.481Z,12.88
2024-03-02T10:46:07.606Z,12.84
2024-03-02T10:47:07.487Z,12.93
2024-03-02T10:48:07.561Z,13.08
2024-03-02T10:49:08.926Z,13.49
2024-03-02T10:50:07.559Z,14.04
2024-03-02T10:51:07.401Z,14.61
2024-03-02T10:52:07.436Z,15.19
2024-03-02T10:53:07.442Z,15.70
2024-03-02T10:54:07.563Z,16.13
2024-03-02T10:55:07.440Z,16.54
2024-03-02T10:56:07.419Z,16.99
2024-03-02T10:57:07.453Z,16.84
2024-03-02T10:58:07.459Z,16.58
2024-03-02T10:59:07.385Z,16.55
2024-03-02T11:00:07.415Z,16.98
2024-03-02T11:01:07.472Z,17.09
2024-03-02T11:02:07.478Z,17.34
2024-03-02T11:03:07.647Z,17.63
2024-03-02T11:04:07.349Z,17.84
2024-03-02T11:05:07.335Z,17.84
2024-03-02T11:06:07.331Z,17.62
2024-03-02T11:07:07.449Z,17.87
2024-03-02T11:08:07.338Z,18.03
2024-03-02T11:09:07.380Z,18.30
2024-03-02T11:10:07.355Z,18.49
2024-03-02T11:11:07.324Z,18.49
2024-03-02T11:12:07.318Z,18.71
2024-03-02T11:13:07.352Z,19.00
2024-03-02T11:14:07.239Z,19.30
2024-03-02T11:15:07.251Z,18.98
2024-03-02T11:16:07.454Z,18.71
2024-03-02T11:17:07.275Z,18.31
2024-03-02T11:18:07.230Z,17.87
2024-03-02T11:19:07.296Z,17.91
2024-03-02T11:20:07.221Z,17.71
2024-03-02T11:21:07.482Z,17.71
2024-03-02T11:22:07.273Z,17.83
2024-03-02T11:23:07.173Z,17.91
2024-03-02T11:24:07.229Z,17.50
2024-03-02T11:25:07.230Z,17.41
2024-03-02T11:26:07.170Z,17.66
2024-03-02T11:27:07.182Z,17.69
2024-03-02T11:28:07.644Z,17.63
2024-03-02T11:29:07.149Z,17.35
2024-03-02T11:30:09.072Z,17.31
2024-03-02T11:31:07.267Z,17.01
2024-03-02T11:32:07.111Z,16.97
2024-03-02T11:33:07.184Z,16.77
2024-03-02T11:34:07.154Z,16.79
2024-03-02T11:35:07.090Z,16.80
2024-03-02T11:36:09.088Z,16.87
2024-03-02T11:37:07.149Z,16.88
2024-03-02T11:38:07.063Z,16.67
2024-03-02T11:39:07.120Z,16.73
2024-03-02T11:40:07.290Z,16.88
2024-03-02T11:41:07.057Z,16.82
2024-03-02T11:42:07.038Z,16.67
2024-03-02T11:43:07.073Z,16.36
2024-03-02T11:44:07.029Z,16.06
2024-03-02T11:45:07.021Z,16.08
2024-03-02T11:46:07.187Z,15.99
2024-03-02T11:47:07.001Z,15.85
2024-03-02T11:48:07.032Z,15.76
2024-03-02T11:49:07.096Z,15.68
2024-03-02T11:50:06.983Z,15.62
2024-03-02T11:51:07.006Z,15.63
2024-03-02T11:52:07.008Z,15.59
2024-03-02T11:53:06.956Z,15.58
2024-03-02T11:54:06.967Z,15.69
2024-03-02T11:55:07.021Z,15.76
2024-03-02T11:56:07.158Z,15.77
2024-03-02T11:57:06.930Z,15.76
2024-03-02T11:58:07.022Z,15.78
2024-03-02T11:59:06.915Z,15.77
2024-03-02T12:00:06.932Z,15.80
2024-03-02T12:01:07.074Z,15.91
2024-03-02T12:02:06.894Z,16.05
2024-03-02T12:03:06.909Z,16.05
2024-03-02T12:04:07.069Z,16.10
2024-03-02T12:05:06.896Z,16.13
2024-03-02T12:06:06.940Z,16.28
2024-03-02T12:07:06.930Z,16.42
2024-03-02T12:08:06.855Z,16.58
2024-03-02T12:09:06.846Z,16.59
2024-03-02T12:10:06.939Z,16.62
2024-03-02T12:11:06.887Z,16.54
2024-03-02T12:12:06.864Z,16.59
2024-03-02T12:13:06.898Z,16.43
2024-03-02T12:14:06.832Z,16.33
2024-03-02T12:15:06.808Z,16.37
2024-03-02T12:16:06.978Z,16.22
2024-03-02T12:17:06.813Z,16.18
2024-03-02T12:18:06.807Z,16.14
2024-03-02T12:19:06.832Z,16.09
2024-03-02T12:20:06.766Z,15.98
2024-03-02T12:21:06.849Z,15.87
2024-03-02T12:22:06.826Z,15.95
2024-03-02T12:23:06.739Z,15.81
2024-03-02T12:24:06.767Z,15.78
2024-03-02T12:25:07.127Z,15.88
2024-03-02T12:26:06.860Z,16.05
2024-03-02T12:27:06.762Z,15.98
2024-03-02T12:28:06.904Z,15.95
2024-03-02T12:29:06.705Z,16.05
2024-03-02T12:30:06.695Z,16.14
2024-03-02T12:31:06.862Z,16.09
2024-03-02T12:32:06.720Z,16.28
2024-03-02T12:33:06.730Z,16.44
2024-03-02T12:34:06.726Z,16.59
2024-03-02T12:35:06.656Z,16.76
2024-03-02T12:36:06.650Z,17.10
2024-03-02T12:37:06.818Z,17.69
2024-03-02T12:38:06.757Z,18.01
2024-03-02T12:39:06.628Z,18.09
2024-03-02T12:40:06.760Z,18.01
2024-03-02T12:41:06.613Z,17.81
2024-03-02T12:42:06.603Z,17.53
2024-03-02T12:43:06.808Z,17.59
2024-03-02T12:44:06.590Z,17.68
2024-03-02T12:45:14.346Z,17.52
2024-03-02T12:46:06.823Z,17.62
2024-03-02T12:47:06.575Z,17.32
2024-03-02T12:48:06.754Z,17.22
2024-03-02T12:49:06.636Z,17.10
2024-03-02T12:50:06.542Z,16.73
2024-03-02T12:51:06.589Z,16.28
2024-03-02T12:52:06.648Z,15.83
2024-03-02T12:53:06.797Z,15.51
2024-03-02T12:54:06.530Z,15.12
2024-03-02T12:55:06.813Z,15.04
2024-03-02T12:56:06.516Z,15.03
2024-03-02T12:57:06.492Z,15.19
2024-03-02T12:58:06.562Z,15.17
2024-03-02T12:59:06.478Z,15.08
2024-03-02T13:00:06.479Z,15.25
2024-03-02T13:01:06.559Z,14.95
2024-03-02T13:02:06.478Z,15.03
2024-03-02T13:03:06.462Z,14.87
2024-03-02T13:04:06.483Z,14.93
2024-03-02T13:05:06.450Z,14.99
2024-03-02T13:06:06.440Z,15.03
2024-03-02T13:07:06.688Z,15.22
2024-03-02T13:08:06.421Z,15.22
2024-03-02T13:09:06.427Z,15.40
2024-03-02T13:10:06.671Z,15.48
2024-03-02T13:11:06.409Z,15.35
2024-03-02T13:12:06.411Z,15.33
2024-03-02T13:13:06.510Z,15.48
2024-03-02T13:14:06.393Z,15.38